sensor_id;sensor_type;location;lat;lon;timestamp;P1;durP1;ratioP1;P2;durP2;ratioP2
72358;SDS011;60317;48.880;-0.862;2023-03-21T00:00:28;3.20;;;1.63;;
72358;SDS011;60317;48.880;-0.862;2023-03-21T00:02:54;3.05;;;1.33;;
72358;SDS011;60317;48.880;-0.862;2023-03-21T00:05:22;3.63;;;1.42;;
72358;SDS011;60317;48.880;-0.862;2023-03-21T00:07:49;2.50;;;1.40;;
72358;SDS011;60317;48.880;-0.862;2023-03-21T00:10:16;2.90;;;1.20;;
72358;SDS011;60317;48.880;-0.862;2023-03-21T00:12:58;2.42;;;1.23;;
72358;SDS011;60317;48.880;-0.862;2023-03-21T00:15:24;3.35;;;1.60;;
72358;SDS011;60317;48.880;-0.862;2023-03-21T00:18:11;2.88;;;1.35;;
72358;SDS011;60317;48.880;-0.862;2023-03-21T00:20:39;2.35;;;1.40;;
72358;SDS011;60317;48.880;-0.862;2023-03-21T00:23:05;3.55;;;1.45;;
72358;SDS011;60317;48.880;-0.862;2023-03-21T00:25:32;3.88;;;1.42;;
72358;SDS011;60317;48.880;-0.862;2023-03-21T00:27:58;2.80;;;1.23;;
72358;SDS011;60317;48.880;-0.862;2023-03-21T00:30:33;2.90;;;1.40;;
72358;SDS011;60317;48.880;-0.862;2023-03-21T00:33:00;3.60;;;1.67;;
72358;SDS011;60317;48.880;-0.862;2023-03-21T00:35:46;3.03;;;1.30;;
72358;SDS011;60317;48.880;-0.862;2023-03-21T00:38:27;2.78;;;1.35;;
72358;SDS011;60317;48.880;-0.862;2023-03-21T00:40:54;3.13;;;1.55;;
72358;SDS011;60317;48.880;-0.862;2023-03-21T00:43:22;3.72;;;1.50;;
72358;SDS011;60317;48.880;-0.862;2023-03-21T00:45:48;3.20;;;1.38;;
72358;SDS011;60317;48.880;-0.862;2023-03-21T00:48:16;2.90;;;1.30;;
72358;SDS011;60317;48.880;-0.862;2023-03-21T00:50:44;3.95;;;1.35;;
72358;SDS011;60317;48.880;-0.862;2023-03-21T00:53:12;4.30;;;1.50;;
72358;SDS011;60317;48.880;-0.862;2023-03-21T00:55:40;2.92;;;1.30;;
72358;SDS011;60317;48.880;-0.862;2023-03-21T00:58:06;3.30;;;1.08;;
72358;SDS011;60317;48.880;-0.862;2023-03-21T01:00:33;3.17;;;1.40;;
72358;SDS011;60317;48.880;-0.862;2023-03-21T01:03:01;3.25;;;1.40;;
72358;SDS011;60317;48.880;-0.862;2023-03-21T01:05:43;2.65;;;1.30;;
72358;SDS011;60317;48.880;-0.862;2023-03-21T01:08:14;2.67;;;1.27;;
72358;SDS011;60317;48.880;-0.862;2023-03-21T01:10:53;2.42;;;1.30;;
72358;SDS011;60317;48.880;-0.862;2023-03-21T01:13:21;3.97;;;1.42;;
72358;SDS011;60317;48.880;-0.862;2023-03-21T01:15:49;3.05;;;1.25;;
72358;SDS011;60317;48.880;-0.862;2023-03-21T01:18:18;3.25;;;1.35;;
72358;SDS011;60317;48.880;-0.862;2023-03-21T01:20:47;2.58;;;1.33;;
72358;SDS011;60317;48.880;-0.862;2023-03-21T01:23:14;2.65;;;1.35;;
72358;SDS011;60317;48.880;-0.862;2023-03-21T01:25:41;3.15;;;1.27;;
72358;SDS011;60317;48.880;-0.862;2023-03-21T01:28:08;3.55;;;1.23;;
72358;SDS011;60317;48.880;-0.862;2023-03-21T01:30:35;2.90;;;1.40;;
72358;SDS011;60317;48.880;-0.862;2023-03-21T01:33:07;1.65;;;1.10;;
72358;SDS011;60317;48.880;-0.862;2023-03-21T01:35:35;1.98;;;1.20;;
72358;SDS011;60317;48.880;-0.862;2023-03-21T01:38:16;4.70;;;1.30;;
72358;SDS011;60317;48.880;-0.862;2023-03-21T01:40:43;1.88;;;1.00;;
72358;SDS011;60317;48.880;-0.862;2023-03-21T01:43:18;2.60;;;1.20;;
72358;SDS011;60317;48.880;-0.862;2023-03-21T01:48:34;2.40;;;1.27;;
72358;SDS011;60317;48.880;-0.862;2023-03-21T01:51:05;2.17;;;1.10;;
72358;SDS011;60317;48.880;-0.862;2023-03-21T01:53:33;3.83;;;1.10;;
72358;SDS011;60317;48.880;-0.862;2023-03-21T01:56:05;3.15;;;1.27;;
72358;SDS011;60317;48.880;-0.862;2023-03-21T01:58:37;3.97;;;1.33;;
72358;SDS011;60317;48.880;-0.862;2023-03-21T02:01:06;1.77;;;1.25;;
72358;SDS011;60317;48.880;-0.862;2023-03-21T02:03:34;2.70;;;1.10;;
72358;SDS011;60317;48.880;-0.862;2023-03-21T02:06:03;1.83;;;0.95;;
72358;SDS011;60317;48.880;-0.862;2023-03-21T02:08:34;2.58;;;1.27;;
72358;SDS011;60317;48.880;-0.862;2023-03-21T02:11:05;3.55;;;1.73;;
72358;SDS011;60317;48.880;-0.862;2023-03-21T02:13:32;1.75;;;0.82;;
72358;SDS011;60317;48.880;-0.862;2023-03-21T02:16:00;2.53;;;1.02;;
72358;SDS011;60317;48.880;-0.862;2023-03-21T02:18:32;2.08;;;1.02;;
72358;SDS011;60317;48.880;-0.862;2023-03-21T02:21:16;1.90;;;0.90;;
72358;SDS011;60317;48.880;-0.862;2023-03-21T02:24:05;2.40;;;1.00;;
72358;SDS011;60317;48.880;-0.862;2023-03-21T02:26:51;2.72;;;1.15;;
72358;SDS011;60317;48.880;-0.862;2023-03-21T02:29:36;2.42;;;1.08;;
72358;SDS011;60317;48.880;-0.862;2023-03-21T02:32:18;3.35;;;1.30;;
72358;SDS011;60317;48.880;-0.862;2023-03-21T02:35:07;2.50;;;1.10;;
72358;SDS011;60317;48.880;-0.862;2023-03-21T02:37:51;2.17;;;0.98;;
72358;SDS011;60317;48.880;-0.862;2023-03-21T02:40:27;2.58;;;1.00;;
72358;SDS011;60317;48.880;-0.862;2023-03-21T02:42:59;2.22;;;1.00;;
72358;SDS011;60317;48.880;-0.862;2023-03-21T02:45:37;2.42;;;1.20;;
72358;SDS011;60317;48.880;-0.862;2023-03-21T02:48:08;1.73;;;0.75;;
72358;SDS011;60317;48.880;-0.862;2023-03-21T02:50:54;2.05;;;1.15;;
72358;SDS011;60317;48.880;-0.862;2023-03-21T02:53:27;2.40;;;1.02;;
72358;SDS011;60317;48.880;-0.862;2023-03-21T02:55:57;2.20;;;0.98;;
72358;SDS011;60317;48.880;-0.862;2023-03-21T02:58:25;2.38;;;1.10;;
72358;SDS011;60317;48.880;-0.862;2023-03-21T03:00:54;2.85;;;1.10;;
72358;SDS011;60317;48.880;-0.862;2023-03-21T03:03:21;1.67;;;0.98;;
72358;SDS011;60317;48.880;-0.862;2023-03-21T03:05:59;3.40;;;1.08;;
72358;SDS011;60317;48.880;-0.862;2023-03-21T03:08:30;5.88;;;0.98;;
72358;SDS011;60317;48.880;-0.862;2023-03-21T03:11:25;2.55;;;1.05;;
72358;SDS011;60317;48.880;-0.862;2023-03-21T03:13:58;1.83;;;1.00;;
72358;SDS011;60317;48.880;-0.862;2023-03-21T03:16:57;3.35;;;1.30;;
72358;SDS011;60317;48.880;-0.862;2023-03-21T03:19:35;2.50;;;0.93;;
72358;SDS011;60317;48.880;-0.862;2023-03-21T03:22:16;2.22;;;1.13;;
72358;SDS011;60317;48.880;-0.862;2023-03-21T03:24:51;2.60;;;1.00;;
72358;SDS011;60317;48.880;-0.862;2023-03-21T03:27:24;2.15;;;1.10;;
72358;SDS011;60317;48.880;-0.862;2023-03-21T03:29:54;1.63;;;0.70;;
72358;SDS011;60317;48.880;-0.862;2023-03-21T03:32:27;2.28;;;1.02;;
72358;SDS011;60317;48.880;-0.862;2023-03-21T03:34:56;2.47;;;1.00;;
72358;SDS011;60317;48.880;-0.862;2023-03-21T03:37:24;2.85;;;1.00;;
72358;SDS011;60317;48.880;-0.862;2023-03-21T03:39:56;2.65;;;1.15;;
72358;SDS011;60317;48.880;-0.862;2023-03-21T03:42:29;3.08;;;1.10;;
72358;SDS011;60317;48.880;-0.862;2023-03-21T03:44:59;1.50;;;0.95;;
72358;SDS011;60317;48.880;-0.862;2023-03-21T03:47:28;1.38;;;0.70;;
72358;SDS011;60317;48.880;-0.862;2023-03-21T03:50:17;2.40;;;1.23;;
72358;SDS011;60317;48.880;-0.862;2023-03-21T03:52:49;4.10;;;0.95;;
72358;SDS011;60317;48.880;-0.862;2023-03-21T03:55:25;2.47;;;1.00;;
72358;SDS011;60317;48.880;-0.862;2023-03-21T03:57:53;2.35;;;0.90;;
72358;SDS011;60317;48.880;-0.862;2023-03-21T04:00:20;1.75;;;0.80;;
72358;SDS011;60317;48.880;-0.862;2023-03-21T04:02:46;3.25;;;1.00;;
72358;SDS011;60317;48.880;-0.862;2023-03-21T04:05:13;2.08;;;0.98;;
72358;SDS011;60317;48.880;-0.862;2023-03-21T04:07:40;2.03;;;1.00;;
72358;SDS011;60317;48.880;-0.862;2023-03-21T04:10:06;2.22;;;1.10;;
72358;SDS011;60317;48.880;-0.862;2023-03-21T04:12:35;1.92;;;0.70;;
72358;SDS011;60317;48.880;-0.862;2023-03-21T04:15:01;2.50;;;0.90;;
72358;SDS011;60317;48.880;-0.862;2023-03-21T04:17:36;2.40;;;1.10;;
72358;SDS011;60317;48.880;-0.862;2023-03-21T04:20:04;1.50;;;0.90;;
72358;SDS011;60317;48.880;-0.862;2023-03-21T04:22:43;3.10;;;1.10;;
72358;SDS011;60317;48.880;-0.862;2023-03-21T04:25:10;2.40;;;0.85;;
72358;SDS011;60317;48.880;-0.862;2023-03-21T04:27:39;1.88;;;0.98;;
72358;SDS011;60317;48.880;-0.862;2023-03-21T04:30:06;2.38;;;1.10;;
72358;SDS011;60317;48.880;-0.862;2023-03-21T04:32:33;2.97;;;1.05;;
72358;SDS011;60317;48.880;-0.862;2023-03-21T04:35:00;1.85;;;0.90;;
72358;SDS011;60317;48.880;-0.862;2023-03-21T04:37:26;1.90;;;0.93;;
72358;SDS011;60317;48.880;-0.862;2023-03-21T04:39:53;2.55;;;0.88;;
72358;SDS011;60317;48.880;-0.862;2023-03-21T04:42:19;2.22;;;0.90;;
72358;SDS011;60317;48.880;-0.862;2023-03-21T04:44:47;2.33;;;0.70;;
72358;SDS011;60317;48.880;-0.862;2023-03-21T04:47:14;2.45;;;0.90;;
72358;SDS011;60317;48.880;-0.862;2023-03-21T04:49:41;1.92;;;0.90;;
72358;SDS011;60317;48.880;-0.862;2023-03-21T04:52:08;2.15;;;1.05;;
72358;SDS011;60317;48.880;-0.862;2023-03-21T04:54:35;1.85;;;0.80;;
72358;SDS011;60317;48.880;-0.862;2023-03-21T04:57:01;1.13;;;0.70;;
72358;SDS011;60317;48.880;-0.862;2023-03-21T04:59:28;1.23;;;0.80;;
72358;SDS011;60317;48.880;-0.862;2023-03-21T05:01:56;2.00;;;0.75;;
72358;SDS011;60317;48.880;-0.862;2023-03-21T05:04:23;2.75;;;1.08;;
72358;SDS011;60317;48.880;-0.862;2023-03-21T05:06:51;2.88;;;0.98;;
72358;SDS011;60317;48.880;-0.862;2023-03-21T05:09:18;1.08;;;0.70;;
72358;SDS011;60317;48.880;-0.862;2023-03-21T05:11:45;1.77;;;0.77;;
72358;SDS011;60317;48.880;-0.862;2023-03-21T05:14:13;2.13;;;0.88;;
72358;SDS011;60317;48.880;-0.862;2023-03-21T05:16:42;2.38;;;0.90;;
72358;SDS011;60317;48.880;-0.862;2023-03-21T05:19:11;1.85;;;1.00;;
72358;SDS011;60317;48.880;-0.862;2023-03-21T05:21:37;1.85;;;0.85;;
72358;SDS011;60317;48.880;-0.862;2023-03-21T05:24:04;1.40;;;0.80;;
72358;SDS011;60317;48.880;-0.862;2023-03-21T05:26:31;2.25;;;0.77;;
72358;SDS011;60317;48.880;-0.862;2023-03-21T05:28:57;1.42;;;0.85;;
72358;SDS011;60317;48.880;-0.862;2023-03-21T05:31:24;1.80;;;0.90;;
72358;SDS011;60317;48.880;-0.862;2023-03-21T05:33:50;2.22;;;0.77;;
72358;SDS011;60317;48.880;-0.862;2023-03-21T05:36:18;1.50;;;0.77;;
72358;SDS011;60317;48.880;-0.862;2023-03-21T05:38:45;1.75;;;0.70;;
72358;SDS011;60317;48.880;-0.862;2023-03-21T05:41:11;1.60;;;0.90;;
72358;SDS011;60317;48.880;-0.862;2023-03-21T05:43:38;1.67;;;0.80;;
72358;SDS011;60317;48.880;-0.862;2023-03-21T05:46:05;2.28;;;1.00;;
72358;SDS011;60317;48.880;-0.862;2023-03-21T05:48:32;1.48;;;0.75;;
72358;SDS011;60317;48.880;-0.862;2023-03-21T05:50:58;1.42;;;0.80;;
72358;SDS011;60317;48.880;-0.862;2023-03-21T05:53:26;2.67;;;0.80;;
72358;SDS011;60317;48.880;-0.862;2023-03-21T05:55:53;2.20;;;0.95;;
72358;SDS011;60317;48.880;-0.862;2023-03-21T05:58:19;2.72;;;0.90;;
72358;SDS011;60317;48.880;-0.862;2023-03-21T06:00:46;2.30;;;0.90;;
72358;SDS011;60317;48.880;-0.862;2023-03-21T06:03:12;1.52;;;0.70;;
72358;SDS011;60317;48.880;-0.862;2023-03-21T06:05:39;2.17;;;1.20;;
72358;SDS011;60317;48.880;-0.862;2023-03-21T06:08:05;1.25;;;0.60;;
72358;SDS011;60317;48.880;-0.862;2023-03-21T06:10:33;5.13;;;1.10;;
72358;SDS011;60317;48.880;-0.862;2023-03-21T06:13:00;1.83;;;0.85;;
72358;SDS011;60317;48.880;-0.862;2023-03-21T06:15:26;1.35;;;0.77;;
72358;SDS011;60317;48.880;-0.862;2023-03-21T06:17:53;1.25;;;0.75;;
72358;SDS011;60317;48.880;-0.862;2023-03-21T06:20:19;0.82;;;0.50;;
72358;SDS011;60317;48.880;-0.862;2023-03-21T06:22:46;3.90;;;0.90;;
72358;SDS011;60317;48.880;-0.862;2023-03-21T06:25:13;1.75;;;0.93;;
72358;SDS011;60317;48.880;-0.862;2023-03-21T06:27:40;2.13;;;1.00;;
72358;SDS011;60317;48.880;-0.862;2023-03-21T06:30:07;2.08;;;0.77;;
72358;SDS011;60317;48.880;-0.862;2023-03-21T06:32:35;2.55;;;1.00;;
72358;SDS011;60317;48.880;-0.862;2023-03-21T06:35:01;3.10;;;1.05;;
72358;SDS011;60317;48.880;-0.862;2023-03-21T06:37:28;2.42;;;1.10;;
72358;SDS011;60317;48.880;-0.862;2023-03-21T06:39:54;6.30;;;1.20;;
72358;SDS011;60317;48.880;-0.862;2023-03-21T06:42:21;3.25;;;0.98;;
72358;SDS011;60317;48.880;-0.862;2023-03-21T06:44:49;2.33;;;0.90;;
72358;SDS011;60317;48.880;-0.862;2023-03-21T06:47:15;2.08;;;0.82;;
72358;SDS011;60317;48.880;-0.862;2023-03-21T06:49:42;1.65;;;0.77;;
72358;SDS011;60317;48.880;-0.862;2023-03-21T06:52:08;2.72;;;1.00;;
72358;SDS011;60317;48.880;-0.862;2023-03-21T06:54:35;2.55;;;0.85;;
72358;SDS011;60317;48.880;-0.862;2023-03-21T06:57:01;5.05;;;0.88;;
72358;SDS011;60317;48.880;-0.862;2023-03-21T06:59:28;2.58;;;1.25;;
72358;SDS011;60317;48.880;-0.862;2023-03-21T07:01:56;4.15;;;1.00;;
72358;SDS011;60317;48.880;-0.862;2023-03-21T07:04:22;9.35;;;1.48;;
72358;SDS011;60317;48.880;-0.862;2023-03-21T10:11:09;15.13;;;2.60;;
72358;SDS011;60317;48.880;-0.862;2023-03-21T10:13:40;13.00;;;2.20;;
72358;SDS011;60317;48.880;-0.862;2023-03-21T10:16:10;20.58;;;2.35;;
72358;SDS011;60317;48.880;-0.862;2023-03-21T10:18:40;5.97;;;1.90;;
72358;SDS011;60317;48.880;-0.862;2023-03-21T10:21:10;13.18;;;2.22;;
72358;SDS011;60317;48.880;-0.862;2023-03-21T10:24:05;9.20;;;1.80;;
72358;SDS011;60317;48.880;-0.862;2023-03-21T10:26:32;10.10;;;2.13;;
72358;SDS011;60317;48.880;-0.862;2023-03-21T10:28:59;12.70;;;1.90;;
72358;SDS011;60317;48.880;-0.862;2023-03-21T10:31:27;15.95;;;2.38;;
72358;SDS011;60317;48.880;-0.862;2023-03-21T10:33:56;7.57;;;2.00;;
72358;SDS011;60317;48.880;-0.862;2023-03-21T10:36:27;12.32;;;1.75;;
72358;SDS011;60317;48.880;-0.862;2023-03-21T10:38:57;8.65;;;1.88;;
72358;SDS011;60317;48.880;-0.862;2023-03-21T10:41:28;9.02;;;1.77;;
72358;SDS011;60317;48.880;-0.862;2023-03-21T10:46:32;5.40;;;1.50;;
72358;SDS011;60317;48.880;-0.862;2023-03-21T10:49:01;7.50;;;1.83;;
72358;SDS011;60317;48.880;-0.862;2023-03-21T10:51:31;12.48;;;2.08;;
72358;SDS011;60317;48.880;-0.862;2023-03-21T10:54:03;14.63;;;2.78;;
72358;SDS011;60317;48.880;-0.862;2023-03-21T10:56:35;17.80;;;2.45;;
72358;SDS011;60317;48.880;-0.862;2023-03-21T10:59:04;13.52;;;3.42;;
72358;SDS011;60317;48.880;-0.862;2023-03-21T11:01:34;20.20;;;3.03;;
72358;SDS011;60317;48.880;-0.862;2023-03-21T11:04:06;13.75;;;2.45;;
72358;SDS011;60317;48.880;-0.862;2023-03-21T11:06:36;11.27;;;2.35;;
72358;SDS011;60317;48.880;-0.862;2023-03-21T11:09:05;15.10;;;2.63;;
72358;SDS011;60317;48.880;-0.862;2023-03-21T11:11:36;9.18;;;2.08;;
72358;SDS011;60317;48.880;-0.862;2023-03-21T11:14:04;9.52;;;2.33;;
72358;SDS011;60317;48.880;-0.862;2023-03-21T11:16:35;12.38;;;1.95;;
72358;SDS011;60317;48.880;-0.862;2023-03-21T11:19:14;5.68;;;2.05;;
72358;SDS011;60317;48.880;-0.862;2023-03-21T11:21:43;10.40;;;2.33;;
72358;SDS011;60317;48.880;-0.862;2023-03-21T11:24:11;6.50;;;1.88;;
72358;SDS011;60317;48.880;-0.862;2023-03-21T11:26:41;6.28;;;2.05;;
72358;SDS011;60317;48.880;-0.862;2023-03-21T11:29:11;14.30;;;2.33;;
72358;SDS011;60317;48.880;-0.862;2023-03-21T11:31:48;8.80;;;2.05;;
72358;SDS011;60317;48.880;-0.862;2023-03-21T11:34:23;15.90;;;2.40;;
72358;SDS011;60317;48.880;-0.862;2023-03-21T11:36:52;9.13;;;2.00;;
72358;SDS011;60317;48.880;-0.862;2023-03-21T11:39:33;6.75;;;2.22;;
72358;SDS011;60317;48.880;-0.862;2023-03-21T11:42:03;6.68;;;2.08;;
72358;SDS011;60317;48.880;-0.862;2023-03-21T11:44:30;20.38;;;3.20;;
72358;SDS011;60317;48.880;-0.862;2023-03-21T11:46:59;12.70;;;2.75;;
72358;SDS011;60317;48.880;-0.862;2023-03-21T11:49:27;8.82;;;2.53;;
72358;SDS011;60317;48.880;-0.862;2023-03-21T11:51:57;11.95;;;2.20;;
72358;SDS011;60317;48.880;-0.862;2023-03-21T11:54:31;10.32;;;2.35;;
72358;SDS011;60317;48.880;-0.862;2023-03-21T11:57:10;8.32;;;2.03;;
72358;SDS011;60317;48.880;-0.862;2023-03-21T11:59:46;7.00;;;1.90;;
72358;SDS011;60317;48.880;-0.862;2023-03-21T12:05:01;14.43;;;2.10;;
72358;SDS011;60317;48.880;-0.862;2023-03-21T12:07:36;12.60;;;2.22;;
72358;SDS011;60317;48.880;-0.862;2023-03-21T12:10:23;8.63;;;2.08;;
72358;SDS011;60317;48.880;-0.862;2023-03-21T12:12:58;6.03;;;2.08;;
72358;SDS011;60317;48.880;-0.862;2023-03-21T12:15:35;10.20;;;2.10;;
72358;SDS011;60317;48.880;-0.862;2023-03-21T12:18:08;9.88;;;2.10;;
72358;SDS011;60317;48.880;-0.862;2023-03-21T12:20:46;13.75;;;2.10;;
72358;SDS011;60317;48.880;-0.862;2023-03-21T12:23:22;9.82;;;2.15;;
72358;SDS011;60317;48.880;-0.862;2023-03-21T12:26:00;10.77;;;2.30;;
72358;SDS011;60317;48.880;-0.862;2023-03-21T12:28:38;25.15;;;2.60;;
72358;SDS011;60317;48.880;-0.862;2023-03-21T12:31:14;20.00;;;2.40;;
72358;SDS011;60317;48.880;-0.862;2023-03-21T12:33:55;50.88;;;3.72;;
72358;SDS011;60317;48.880;-0.862;2023-03-21T12:36:35;30.58;;;3.22;;
72358;SDS011;60317;48.880;-0.862;2023-03-21T12:39:13;28.85;;;3.30;;
72358;SDS011;60317;48.880;-0.862;2023-03-21T12:41:51;47.17;;;4.30;;
72358;SDS011;60317;48.880;-0.862;2023-03-21T12:44:30;40.72;;;3.53;;
72358;SDS011;60317;48.880;-0.862;2023-03-21T12:47:01;42.50;;;3.70;;
72358;SDS011;60317;48.880;-0.862;2023-03-21T12:49:33;32.70;;;3.15;;
72358;SDS011;60317;48.880;-0.862;2023-03-21T12:52:04;20.38;;;3.03;;
72358;SDS011;60317;48.880;-0.862;2023-03-21T12:54:36;24.40;;;2.95;;
72358;SDS011;60317;48.880;-0.862;2023-03-21T12:57:07;19.08;;;2.40;;
72358;SDS011;60317;48.880;-0.862;2023-03-21T12:59:40;18.75;;;2.88;;
72358;SDS011;60317;48.880;-0.862;2023-03-21T13:02:16;20.80;;;2.50;;
72358;SDS011;60317;48.880;-0.862;2023-03-21T13:04:46;11.45;;;2.30;;
72358;SDS011;60317;48.880;-0.862;2023-03-21T13:07:21;11.38;;;2.17;;
72358;SDS011;60317;48.880;-0.862;2023-03-21T13:09:49;19.55;;;2.55;;
72358;SDS011;60317;48.880;-0.862;2023-03-21T13:12:19;12.90;;;2.20;;
72358;SDS011;60317;48.880;-0.862;2023-03-21T13:14:58;15.65;;;2.30;;
72358;SDS011;60317;48.880;-0.862;2023-03-21T13:17:41;12.70;;;2.00;;
72358;SDS011;60317;48.880;-0.862;2023-03-21T13:20:13;10.35;;;2.28;;
72358;SDS011;60317;48.880;-0.862;2023-03-21T13:22:44;16.17;;;2.85;;
72358;SDS011;60317;48.880;-0.862;2023-03-21T13:25:15;30.58;;;3.28;;
72358;SDS011;60317;48.880;-0.862;2023-03-21T13:27:46;14.52;;;2.30;;
72358;SDS011;60317;48.880;-0.862;2023-03-21T13:30:18;21.23;;;2.85;;
72358;SDS011;60317;48.880;-0.862;2023-03-21T13:32:47;29.25;;;3.03;;
72358;SDS011;60317;48.880;-0.862;2023-03-21T13:35:17;37.58;;;3.60;;
72358;SDS011;60317;48.880;-0.862;2023-03-21T13:37:48;31.17;;;3.47;;
72358;SDS011;60317;48.880;-0.862;2023-03-21T13:40:20;20.42;;;3.13;;
72358;SDS011;60317;48.880;-0.862;2023-03-21T13:42:50;23.30;;;2.47;;
72358;SDS011;60317;48.880;-0.862;2023-03-21T13:45:24;18.98;;;2.65;;
72358;SDS011;60317;48.880;-0.862;2023-03-21T13:47:56;14.73;;;2.38;;
72358;SDS011;60317;48.880;-0.862;2023-03-21T13:50:26;11.23;;;2.40;;
72358;SDS011;60317;48.880;-0.862;2023-03-21T13:55:39;17.08;;;2.63;;
72358;SDS011;60317;48.880;-0.862;2023-03-21T14:01:07;12.27;;;2.30;;
72358;SDS011;60317;48.880;-0.862;2023-03-21T14:03:39;12.57;;;2.60;;
72358;SDS011;60317;48.880;-0.862;2023-03-21T14:06:07;14.63;;;2.72;;
72358;SDS011;60317;48.880;-0.862;2023-03-21T14:08:35;15.30;;;3.05;;
72358;SDS011;60317;48.880;-0.862;2023-03-21T14:11:07;10.30;;;2.00;;
72358;SDS011;60317;48.880;-0.862;2023-03-21T14:13:37;12.02;;;2.20;;
72358;SDS011;60317;48.880;-0.862;2023-03-21T14:16:18;12.00;;;2.28;;
72358;SDS011;60317;48.880;-0.862;2023-03-21T14:18:47;6.97;;;1.77;;
72358;SDS011;60317;48.880;-0.862;2023-03-21T14:21:21;12.32;;;2.05;;
72358;SDS011;60317;48.880;-0.862;2023-03-21T14:23:58;9.27;;;2.13;;
72358;SDS011;60317;48.880;-0.862;2023-03-21T14:26:26;9.35;;;2.20;;
72358;SDS011;60317;48.880;-0.862;2023-03-21T14:28:55;8.52;;;2.25;;
72358;SDS011;60317;48.880;-0.862;2023-03-21T14:31:24;10.13;;;2.00;;
72358;SDS011;60317;48.880;-0.862;2023-03-21T14:33:52;7.72;;;1.75;;
72358;SDS011;60317;48.880;-0.862;2023-03-21T14:36:22;7.32;;;1.80;;
72358;SDS011;60317;48.880;-0.862;2023-03-21T14:38:56;8.73;;;1.70;;
72358;SDS011;60317;48.880;-0.862;2023-03-21T14:41:29;6.07;;;1.75;;
72358;SDS011;60317;48.880;-0.862;2023-03-21T14:44:01;7.53;;;1.70;;
72358;SDS011;60317;48.880;-0.862;2023-03-21T14:46:38;4.28;;;1.48;;
72358;SDS011;60317;48.880;-0.862;2023-03-21T14:49:10;8.80;;;2.00;;
72358;SDS011;60317;48.880;-0.862;2023-03-21T14:51:38;8.90;;;1.33;;
72358;SDS011;60317;48.880;-0.862;2023-03-21T14:54:05;5.30;;;1.80;;
72358;SDS011;60317;48.880;-0.862;2023-03-21T14:56:34;4.82;;;1.77;;
72358;SDS011;60317;48.880;-0.862;2023-03-21T14:59:03;7.85;;;1.88;;
72358;SDS011;60317;48.880;-0.862;2023-03-21T15:01:31;8.70;;;1.98;;
72358;SDS011;60317;48.880;-0.862;2023-03-21T15:04:00;4.20;;;1.67;;
72358;SDS011;60317;48.880;-0.862;2023-03-21T15:06:30;6.68;;;1.80;;
72358;SDS011;60317;48.880;-0.862;2023-03-21T15:08:58;5.88;;;1.50;;
72358;SDS011;60317;48.880;-0.862;2023-03-21T15:11:28;8.18;;;1.60;;
72358;SDS011;60317;48.880;-0.862;2023-03-21T15:13:56;6.50;;;1.55;;
72358;SDS011;60317;48.880;-0.862;2023-03-21T15:16:25;5.93;;;1.58;;
72358;SDS011;60317;48.880;-0.862;2023-03-21T15:18:52;8.60;;;2.00;;
72358;SDS011;60317;48.880;-0.862;2023-03-21T15:21:21;4.50;;;1.50;;
72358;SDS011;60317;48.880;-0.862;2023-03-21T15:23:51;4.90;;;1.42;;
72358;SDS011;60317;48.880;-0.862;2023-03-21T15:26:21;4.03;;;1.40;;
72358;SDS011;60317;48.880;-0.862;2023-03-21T15:28:54;5.72;;;1.80;;
72358;SDS011;60317;48.880;-0.862;2023-03-21T15:31:23;4.38;;;1.48;;
72358;SDS011;60317;48.880;-0.862;2023-03-21T15:33:53;11.50;;;1.80;;
72358;SDS011;60317;48.880;-0.862;2023-03-21T15:36:22;7.32;;;1.60;;
72358;SDS011;60317;48.880;-0.862;2023-03-21T15:38:51;8.45;;;1.88;;
72358;SDS011;60317;48.880;-0.862;2023-03-21T15:41:26;5.55;;;1.60;;
72358;SDS011;60317;48.880;-0.862;2023-03-21T15:43:59;5.18;;;1.48;;
72358;SDS011;60317;48.880;-0.862;2023-03-21T15:46:31;6.50;;;1.70;;
72358;SDS011;60317;48.880;-0.862;2023-03-21T15:49:07;5.10;;;1.67;;
72358;SDS011;60317;48.880;-0.862;2023-03-21T15:51:37;6.40;;;1.50;;
72358;SDS011;60317;48.880;-0.862;2023-03-21T15:54:07;9.75;;;1.88;;
72358;SDS011;60317;48.880;-0.862;2023-03-21T15:56:40;8.07;;;2.00;;
72358;SDS011;60317;48.880;-0.862;2023-03-21T15:59:08;12.38;;;2.20;;
72358;SDS011;60317;48.880;-0.862;2023-03-21T16:01:39;9.40;;;2.10;;
72358;SDS011;60317;48.880;-0.862;2023-03-21T16:04:06;11.02;;;1.90;;
72358;SDS011;60317;48.880;-0.862;2023-03-21T16:06:35;6.72;;;1.90;;
72358;SDS011;60317;48.880;-0.862;2023-03-21T16:09:07;7.40;;;1.60;;
72358;SDS011;60317;48.880;-0.862;2023-03-21T16:11:36;8.85;;;1.83;;
72358;SDS011;60317;48.880;-0.862;2023-03-21T16:14:04;7.93;;;1.92;;
72358;SDS011;60317;48.880;-0.862;2023-03-21T16:16:32;7.75;;;1.70;;
72358;SDS011;60317;48.880;-0.862;2023-03-21T16:18:59;6.65;;;1.90;;
72358;SDS011;60317;48.880;-0.862;2023-03-21T16:21:27;5.93;;;1.67;;
72358;SDS011;60317;48.880;-0.862;2023-03-21T16:23:56;7.13;;;1.90;;
72358;SDS011;60317;48.880;-0.862;2023-03-21T16:26:24;6.60;;;1.80;;
72358;SDS011;60317;48.880;-0.862;2023-03-21T16:28:53;8.13;;;1.90;;
72358;SDS011;60317;48.880;-0.862;2023-03-21T16:31:21;7.72;;;1.83;;
72358;SDS011;60317;48.880;-0.862;2023-03-21T16:33:50;4.93;;;1.20;;
72358;SDS011;60317;48.880;-0.862;2023-03-21T16:36:17;8.20;;;1.40;;
72358;SDS011;60317;48.880;-0.862;2023-03-21T16:38:46;5.93;;;1.50;;
72358;SDS011;60317;48.880;-0.862;2023-03-21T16:41:15;6.38;;;1.70;;
72358;SDS011;60317;48.880;-0.862;2023-03-21T16:43:42;6.30;;;1.70;;
72358;SDS011;60317;48.880;-0.862;2023-03-21T16:46:11;7.93;;;1.80;;
72358;SDS011;60317;48.880;-0.862;2023-03-21T16:48:38;6.00;;;1.40;;
72358;SDS011;60317;48.880;-0.862;2023-03-21T16:51:05;4.90;;;1.52;;
72358;SDS011;60317;48.880;-0.862;2023-03-21T16:53:31;5.28;;;1.23;;
72358;SDS011;60317;48.880;-0.862;2023-03-21T16:55:58;5.28;;;1.42;;
72358;SDS011;60317;48.880;-0.862;2023-03-21T16:58:26;5.13;;;1.55;;
72358;SDS011;60317;48.880;-0.862;2023-03-21T17:00:54;11.25;;;1.70;;
72358;SDS011;60317;48.880;-0.862;2023-03-21T17:03:21;5.88;;;1.73;;
72358;SDS011;60317;48.880;-0.862;2023-03-21T17:05:48;4.93;;;1.40;;
72358;SDS011;60317;48.880;-0.862;2023-03-21T17:08:15;6.07;;;1.40;;
72358;SDS011;60317;48.880;-0.862;2023-03-21T17:10:43;6.15;;;1.42;;
72358;SDS011;60317;48.880;-0.862;2023-03-21T17:13:10;5.22;;;1.42;;
72358;SDS011;60317;48.880;-0.862;2023-03-21T17:15:38;5.07;;;1.65;;
72358;SDS011;60317;48.880;-0.862;2023-03-21T17:18:05;5.10;;;1.50;;
72358;SDS011;60317;48.880;-0.862;2023-03-21T17:20:32;3.60;;;1.40;;
72358;SDS011;60317;48.880;-0.862;2023-03-21T17:22:59;4.32;;;1.48;;
72358;SDS011;60317;48.880;-0.862;2023-03-21T17:25:26;6.53;;;1.48;;
72358;SDS011;60317;48.880;-0.862;2023-03-21T17:27:53;3.05;;;1.27;;
72358;SDS011;60317;48.880;-0.862;2023-03-21T17:30:21;5.55;;;1.50;;
72358;SDS011;60317;48.880;-0.862;2023-03-21T17:32:51;3.67;;;1.33;;
72358;SDS011;60317;48.880;-0.862;2023-03-21T17:35:18;6.68;;;1.63;;
72358;SDS011;60317;48.880;-0.862;2023-03-21T17:37:45;4.30;;;1.27;;
72358;SDS011;60317;48.880;-0.862;2023-03-21T17:40:12;3.88;;;1.30;;
72358;SDS011;60317;48.880;-0.862;2023-03-21T17:42:39;4.82;;;1.30;;
72358;SDS011;60317;48.880;-0.862;2023-03-21T17:45:06;3.33;;;1.50;;
72358;SDS011;60317;48.880;-0.862;2023-03-21T17:47:33;4.82;;;1.67;;
72358;SDS011;60317;48.880;-0.862;2023-03-21T17:50:01;5.07;;;1.55;;
72358;SDS011;60317;48.880;-0.862;2023-03-21T17:52:27;4.50;;;1.40;;
72358;SDS011;60317;48.880;-0.862;2023-03-21T17:54:54;6.10;;;1.63;;
72358;SDS011;60317;48.880;-0.862;2023-03-21T17:57:20;4.50;;;1.25;;
72358;SDS011;60317;48.880;-0.862;2023-03-21T17:59:47;4.18;;;1.48;;
72358;SDS011;60317;48.880;-0.862;2023-03-21T18:02:13;2.88;;;1.17;;
72358;SDS011;60317;48.880;-0.862;2023-03-21T18:04:40;4.50;;;1.40;;
72358;SDS011;60317;48.880;-0.862;2023-03-21T18:07:09;5.05;;;1.27;;